Time;durP1;ratioP1;P1;durP2;ratioP2;P2;SDS_P1;SDS_P2;PMS_P1;PMS_P2;Temp;Humidity;BMP_temperature;BMP_pressure;BME280_temperature;BME280_humidity;BME280_pressure;Samples;Min_cycle;Max_cycle;Signal;HPM_P1;HPM_P2
2023/06/15 08:57:14;;;;;;;7.63;4.78;;;;;;;24.47;44.07;96662.41;2088252;28;20582;-57
2023/06/15 08:59:30;;;;;;;9.68;3.83;;;;;;;24.54;43.40;96663.44;2102744;27;20562;-57
2023/06/15 09:01:44;;;;;;;6.35;3.47;;;;;;;24.86;43.77;96651.34;2089552;28;20554;-58
2023/06/15 09:04:02;;;;;;;6.60;3.70;;;;;;;25.13;43.20;96664.66;2101411;27;20566;-58
2023/06/15 09:06:21;;;;;;;8.85;4.68;;;;;;;25.38;42.26;96658.47;2100684;27;21576;-58
2023/06/15 09:08:51;;;;;;;6.43;3.60;;;;;;;24.70;42.65;96657.41;2084948;28;20575;-58
2023/06/15 09:10:13;;;;;;;5.47;3.40;;;;;;;25.10;42.76;96655.13;2082857;28;20291;-58
2023/06/15 09:12:32;;;;;;;7.55;3.83;;;;;;;25.35;42.02;96658.75;2077133;28;20567;-58
2023/06/15 09:13:34;;;;;;;9.40;3.72;;;;;;;25.25;42.12;96658.03;2074780;28;20198;-58
2023/06/15 09:16:11;;;;;;;9.05;3.75;;;;;;;24.38;42.87;96661.50;2085071;28;21087;-58
2023/06/15 09:17:13;;;;;;;8.57;4.13;;;;;;;24.44;42.80;96663.56;2078435;28;20217;-58
2023/06/15 09:18:15;;;;;;;12.57;4.15;;;;;;;24.38;43.13;96655.31;2074758;28;20201;-58
2023/06/15 09:20:59;;;;;;;4.85;3.15;;;;;;;25.12;41.83;96660.34;2099308;27;20550;-58
2023/06/15 09:22:01;;;;;;;6.70;3.80;;;;;;;24.56;41.80;96666.81;2092146;28;20901;-58
2023/06/15 09:23:05;;;;;;;10.23;4.25;;;;;;;24.44;42.91;96660.88;2075983;28;20209;-58
2023/06/15 09:24:08;;;;;;;11.02;3.70;;;;;;;24.81;43.36;96660.81;2073176;28;20236;-58
2023/06/15 09:25:29;;;;;;;6.63;3.55;;;;;;;25.22;42.90;96659.19;2070795;28;20559;-58
2023/06/15 09:26:30;;;;;;;9.07;3.58;;;;;;;25.49;42.15;96656.50;2071499;28;20194;-58
2023/06/15 09:27:32;;;;;;;9.40;3.70;;;;;;;25.55;41.91;96658.53;2067018;28;20233;-58
2023/06/15 09:28:33;;;;;;;5.43;3.50;;;;;;;25.81;42.03;96669.09;2064154;28;20974;-58
2023/06/15 09:29:35;;;;;;;11.02;4.00;;;;;;;25.75;41.43;96659.91;2064921;28;20645;-58
2023/06/15 09:30:38;;;;;;;10.55;3.58;;;;;;;25.50;41.64;96659.00;2063969;28;20247;-58
2023/06/15 09:31:41;;;;;;;9.93;3.58;;;;;;;25.61;41.45;96654.34;2067038;28;20241;-58
2023/06/15 09:32:43;;;;;;;9.07;3.75;;;;;;;25.51;41.41;96660.69;2064368;28;20665;-58
2023/06/15 09:33:44;;;;;;;10.02;4.03;;;;;;;25.77;41.48;96659.75;2064752;28;20210;-58
2023/06/15 09:34:57;;;;;;;6.50;3.05;;;;;;;25.76;41.75;96658.06;2064699;28;20206;-58
2023/06/15 09:36:01;;;;;;;6.00;3.50;;;;;;;25.94;41.19;96657.09;2062869;28;20828;-58
2023/06/15 09:37:14;;;;;;;6.47;3.55;;;;;;;26.00;41.05;96662.63;2067031;28;20245;-58
2023/06/15 09:38:16;;;;;;;6.22;3.38;;;;;;;26.14;40.75;96660.34;2072668;28;20199;-58
2023/06/15 09:39:22;;;;;;;6.82;3.80;;;;;;;26.34;40.56;96664.34;2072351;28;20600;-58
2023/06/15 09:40:28;;;;;;;8.68;3.33;;;;;;;25.84;40.60;96667.94;2072900;28;20304;-58
2023/06/15 09:41:31;;;;;;;12.73;3.20;;;;;;;26.19;40.47;96671.38;2070745;28;20612;-58
2023/06/15 09:42:35;;;;;;;7.63;3.42;;;;;;;26.43;39.93;96665.19;2066278;28;20225;-58
2023/06/15 09:43:38;;;;;;;11.35;3.85;;;;;;;26.58;39.08;96669.88;2064098;28;20204;-58
2023/06/15 09:44:42;;;;;;;8.20;3.10;;;;;;;26.67;39.22;96667.00;2064097;28;20205;-58
2023/06/15 09:45:50;;;;;;;9.77;3.60;;;;;;;26.92;39.45;96661.66;2065731;28;20210;-58
2023/06/15 09:46:53;;;;;;;5.53;3.25;;;;;;;26.63;39.73;96670.22;2066284;28;20195;-58
2023/06/15 09:47:56;;;;;;;6.75;3.42;;;;;;;26.85;38.47;96663.34;2073278;28;20193;-58
2023/06/15 09:48:58;;;;;;;11.35;3.97;;;;;;;26.39;39.39;96670.03;2073151;28;20606;-58
2023/06/15 09:49:59;;;;;;;11.63;4.28;;;;;;;25.84;39.60;96671.47;2072344;28;20237;-58
2023/06/15 09:51:03;;;;;;;7.25;3.70;;;;;;;25.35;40.46;96668.63;2073834;28;20193;-58
2023/06/15 09:52:11;;;;;;;7.35;3.45;;;;;;;25.89;39.72;96666.47;2068411;28;20795;-58
2023/06/15 09:53:13;;;;;;;3.75;2.67;;;;;;;26.00;39.44;96667.16;2064961;28;20202;-58
2023/06/15 09:54:17;;;;;;;7.82;3.10;;;;;;;25.51;39.76;96665.19;2064320;28;20199;-58
2023/06/15 09:55:19;;;;;;;9.68;3.40;;;;;;;24.69;40.51;96665.59;2063843;28;20244;-58
2023/06/15 09:56:23;;;;;;;6.82;2.97;;;;;;;24.76;40.68;96667.47;2063789;28;20202;-58
2023/06/15 09:57:31;;;;;;;7.55;3.13;;;;;;;24.90;40.99;96667.88;2070077;28;20234;-58
2023/06/15 09:58:33;;;;;;;7.25;3.05;;;;;;;25.49;40.17;96662.66;2072693;28;20198;-58
2023/06/15 09:59:34;;;;;;;7.13;3.50;;;;;;;26.14;38.87;96673.72;2074555;28;20285;-58
2023/06/15 10:00:37;;;;;;;5.20;3.00;;;;;;;26.24;37.16;96659.19;2072429;28;20214;-58
2023/06/15 10:01:41;;;;;;;5.65;3.58;;;;;;;26.47;37.13;96669.19;2074107;28;20202;-58
2023/06/15 10:02:44;;;;;;;5.20;3.20;;;;;;;26.31;37.38;96667.38;2064964;28;20226;-58
2023/06/15 10:03:52;;;;;;;8.02;3.03;;;;;;;26.80;37.80;96665.69;2065148;28;20198;-58
2023/06/15 10:04:54;;;;;;;7.47;2.83;;;;;;;26.98;36.53;96665.47;2066516;28;20331;-58
2023/06/15 10:06:01;;;;;;;9.60;4.13;;;;;;;25.91;38.29;96661.78;2065220;28;20190;-58
2023/06/15 10:07:04;;;;;;;5.97;3.15;;;;;;;25.08;38.94;96667.81;2065984;28;20324;-58
2023/06/15 10:08:07;;;;;;;4.47;3.40;;;;;;;24.65;40.79;96657.06;2071290;28;20293;-58
2023/06/15 10:09:10;;;;;;;6.07;2.95;;;;;;;24.94;40.13;96656.72;2074088;28;20198;-58
2023/06/15 10:10:15;;;;;;;9.75;3.45;;;;;;;25.69;39.93;96662.41;2071106;28;20326;-57
2023/06/15 10:11:20;;;;;;;5.03;3.08;;;;;;;26.12;39.33;96667.69;2075087;28;20190;-58
2023/06/15 10:12:25;;;;;;;5.40;3.10;;;;;;;26.72;38.48;96670.00;2065581;28;20321;-58
2023/06/15 10:13:45;;;;;;;8.82;3.60;;;;;;;26.97;37.78;96666.47;2064998;28;20257;-58
2023/06/15 10:14:59;;;;;;;6.70;2.65;;;;;;;27.15;37.45;96668.97;2063029;28;20257;-58
2023/06/15 10:16:03;;;;;;;4.20;3.00;;;;;;;26.92;38.25;96663.47;2064132;28;20285;-58
2023/06/15 10:17:08;;;;;;;7.57;3.35;;;;;;;26.97;36.95;96664.66;2066684;28;20358;-58
2023/06/15 10:18:12;;;;;;;4.82;3.10;;;;;;;26.87;37.06;96667.50;2073726;28;20210;-58
2023/06/15 10:19:15;;;;;;;6.38;3.03;;;;;;;27.30;36.47;96666.38;2073015;28;20340;-58
2023/06/15 10:20:17;;;;;;;5.95;2.78;;;;;;;27.66;35.89;96665.91;2073533;28;20237;-57
2023/06/15 10:21:25;;;;;;;4.47;3.00;;;;;;;27.86;35.88;96671.69;2068072;28;20848;-57
2023/06/15 10:22:29;;;;;;;7.55;2.70;;;;;;;28.15;36.13;96660.28;2069078;28;20234;-58
2023/06/15 10:23:32;;;;;;;5.45;2.70;;;;;;;28.37;36.23;96664.94;2065005;28;20222;-57
2023/06/15 10:24:46;;;;;;;8.20;3.30;;;;;;;28.09;36.22;96662.84;2064402;28;20234;-57
2023/06/15 10:25:47;;;;;;;3.38;2.60;;;;;;;28.24;36.23;96663.72;2065087;28;20334;-57
2023/06/15 10:26:49;;;;;;;5.57;3.40;;;;;;;28.78;35.98;96668.13;2066005;28;20225;-57
2023/06/15 10:27:50;;;;;;;5.75;3.05;;;;;;;28.67;35.15;96663.22;2070504;28;20314;-57
2023/06/15 10:29:00;;;;;;;8.35;3.50;;;;;;;27.85;35.75;96665.47;2074301;28;20939;-57
2023/06/15 10:30:10;;;;;;;24.90;3.40;;;;;;;26.54;36.87;96659.50;2074514;28;20856;-57
2023/06/15 10:31:18;;;;;;;5.07;3.22;;;;;;;26.54;37.36;96664.84;2072167;28;20195;-57
2023/06/15 10:32:43;;;;;;;14.80;3.47;;;;;;;26.39;37.67;96669.22;2060913;28;20250;-57
2023/06/15 10:33:51;;;;;;;5.63;2.83;;;;;;;26.50;37.15;96668.88;2057490;28;20199;-57
2023/06/15 10:35:01;;;;;;;10.85;3.17;;;;;;;26.48;37.12;96667.38;2059074;28;20260;-57
2023/06/15 10:36:10;;;;;;;7.65;2.50;;;;;;;26.50;36.18;96660.00;2060642;28;20196;-57
2023/06/15 10:37:24;;;;;;;5.22;2.78;;;;;;;26.89;35.84;96661.97;2064467;28;20600;-57
2023/06/15 10:39:07;;;;;;;4.30;2.65;;;;;;;26.93;35.68;96660.66;2065162;28;20292;-57
2023/06/15 10:40:13;;;;;;;3.55;2.80;;;;;;;26.44;36.29;96655.34;2055194;28;20202;-57
2023/06/15 10:41:15;;;;;;;8.43;2.95;;;;;;;26.85;36.40;96657.97;2067892;28;20259;-57
2023/06/15 10:42:17;;;;;;;5.00;2.97;;;;;;;27.08;36.91;96659.94;2063417;28;20264;-57
2023/06/15 10:43:25;;;;;;;3.95;2.45;;;;;;;27.87;35.63;96670.66;2061784;28;20206;-57
2023/06/15 10:44:31;;;;;;;8.48;3.25;;;;;;;28.05;33.87;96666.88;2059914;28;20204;-57
2023/06/15 10:45:33;;;;;;;4.40;2.80;;;;;;;27.89;33.52;96659.75;2062015;28;20681;-57
2023/06/15 10:46:36;;;;;;;4.88;3.30;;;;;;;27.92;33.74;96662.06;2061721;28;20276;-57
2023/06/15 10:47:48;;;;;;;4.95;2.80;;;;;;;28.31;34.17;96658.47;2066120;28;20221;-57
2023/06/15 10:48:52;;;;;;;7.70;2.70;;;;;;;28.43;33.02;96665.09;2066926;28;20198;-57
2023/06/15 10:49:55;;;;;;;4.72;2.75;;;;;;;28.61;32.99;96655.88;2068042;28;20190;-57
2023/06/15 10:51:07;;;;;;;11.93;2.70;;;;;;;28.38;33.28;96661.25;2068781;28;20194;-57
2023/06/15 10:52:12;;;;;;;4.88;3.20;;;;;;;28.67;33.27;96660.53;2062046;28;20307;-57
2023/06/15 10:53:25;;;;;;;5.05;2.88;;;;;;;28.92;34.52;96662.97;2058617;28;20206;-57
2023/06/15 10:54:27;;;;;;;2.95;2.28;;;;;;;28.88;33.91;96665.19;2058133;28;20210;-57
2023/06/15 10:55:30;;;;;;;6.13;2.90;;;;;;;29.08;33.90;96659.28;2057525;28;20882;-57
2023/06/15 10:56:32;;;;;;;19.13;3.37;;;;;;;28.80;34.31;96663.44;2061204;28;20435;-57
2023/06/15 10:57:35;;;;;;;7.70;3.17;;;;;;;28.19;34.90;96661.56;2068195;28;20816;-57
2023/06/15 10:58:51;;;;;;;6.25;2.75;;;;;;;28.75;33.72;96665.00;2067776;28;20440;-57
2023/06/15 10:59:54;;;;;;;3.72;2.47;;;;;;;28.51;33.57;96665.00;2068701;28;20197;-58
2023/06/15 11:01:15;;;;;;;7.10;3.10;;;;;;;28.55;34.54;96659.28;2061781;28;20310;-57
2023/06/15 11:02:29;;;;;;;6.87;3.17;;;;;;;28.52;33.94;96661.31;2061152;28;20457;-57
2023/06/15 11:03:32;;;;;;;3.60;2.80;;;;;;;28.49;34.60;96666.19;2056745;28;20926;-57
2023/06/15 11:04:34;;;;;;;3.83;2.60;;;;;;;28.69;34.27;96655.00;2054675;28;20594;-57
2023/06/15 11:05:42;;;;;;;9.83;3.00;;;;;;;28.43;33.34;96659.72;2057334;28;20438;-57
2023/06/15 11:06:55;;;;;;;3.35;2.40;;;;;;;29.04;33.80;96658.81;2057071;28;20442;-58
2023/06/15 11:07:57;;;;;;;4.68;2.20;;;;;;;29.43;33.97;96662.25;2067198;28;20195;-57
2023/06/15 11:09:11;;;;;;;4.10;2.87;;;;;;;29.63;32.86;96660.63;2066172;28;20202;-58
2023/06/15 11:10:15;;;;;;;4.20;3.00;;;;;;;29.52;32.19;96657.59;2069228;28;20459;-57
2023/06/15 11:11:30;;;;;;;6.00;2.97;;;;;;;28.96;32.75;96661.59;2068006;28;20543;-57
2023/06/15 11:12:39;;;;;;;6.57;2.43;;;;;;;28.90;33.91;96667.69;2061534;28;20475;-57
2023/06/15 11:13:55;;;;;;;4.97;2.47;;;;;;;29.54;32.70;96655.56;2061190;28;20761;-57
2023/06/15 11:14:56;;;;;;;3.87;2.63;;;;;;;29.53;31.75;96661.97;2073622;28;20253;-57
2023/06/15 11:16:06;;;;;;;5.30;3.00;;;;;;;29.82;31.45;96661.06;2076535;28;21149;-57
2023/06/15 11:17:08;;;;;;;6.57;2.87;;;;;;;29.12;31.75;96660.59;2063329;28;20462;-57
2023/06/15 11:18:14;;;;;;;3.70;2.87;;;;;;;29.10;31.45;96650.03;2070143;28;20426;-57
2023/06/15 11:19:19;;;;;;;7.00;2.80;;;;;;;29.14;31.85;96653.16;2069331;28;21017;-57
2023/06/15 11:20:47;;;;;;;5.00;2.27;;;;;;;28.62;33.76;96658.38;2066875;28;20607;-58
2023/06/15 11:21:56;;;;;;;10.73;2.40;;;;;;;29.38;33.36;96662.84;2065339;28;20601;-57
2023/06/15 11:23:01;;;;;;;4.27;2.47;;;;;;;28.72;32.84;96654.63;2057350;28;20480;-58
2023/06/15 11:24:07;;;;;;;5.33;3.33;;;;;;;27.64;34.40;96662.56;2059111;28;20491;-57
2023/06/15 11:25:10;;;;;;;4.40;2.90;;;;;;;28.34;33.02;96658.09;2059712;28;20425;-57
2023/06/15 11:26:14;;;;;;;3.20;2.23;;;;;;;29.16;32.37;96653.81;2060078;28;20452;-57
2023/06/15 11:27:19;;;;;;;4.67;2.73;;;;;;;28.85;32.13;96652.16;2062948;28;20459;-57
2023/06/15 11:28:31;;;;;;;5.83;3.27;;;;;;;29.57;31.75;96653.34;2067858;28;20860;-57
2023/06/15 11:29:41;;;;;;;6.40;2.70;;;;;;;29.88;30.33;96659.50;2065943;28;20468;-57
2023/06/15 11:30:43;;;;;;;5.53;2.70;;;;;;;29.83;30.30;96656.50;2067133;28;20424;-57
2023/06/15 11:31:45;;;;;;;4.30;2.50;;;;;;;28.87;31.60;96655.47;2067025;28;20495;-57
2023/06/15 11:32:46;;;;;;;3.53;2.17;;;;;;;28.46;31.23;96658.53;2060450;28;20436;-57
2023/06/15 11:33:49;;;;;;;5.47;2.80;;;;;;;27.70;32.05;96659.19;2058134;28;20990;-57
2023/06/15 11:34:55;;;;;;;5.53;3.13;;;;;;;28.52;31.55;96658.63;2059752;28;20518;-57
2023/06/15 11:36:03;;;;;;;5.50;2.80;;;;;;;29.41;32.13;96654.38;2059278;28;20428;-57
2023/06/15 11:37:06;;;;;;;4.10;2.30;;;;;;;29.64;30.32;96651.53;2062377;28;20512;-57
2023/06/15 11:38:08;;;;;;;3.63;2.50;;;;;;;29.18;30.53;96657.16;2066522;28;20452;-57
2023/06/15 11:39:23;;;;;;;4.90;2.50;;;;;;;27.78;31.23;96656.47;2065770;28;20959;-57
2023/06/15 11:40:25;;;;;;;4.53;2.87;;;;;;;27.26;31.90;96648.97;2064702;28;20437;-57
2023/06/15 11:41:26;;;;;;;3.58;2.40;;;;;;;28.45;31.69;96652.28;2066690;28;20438;-57
2023/06/15 11:42:28;;;;;;;8.82;2.85;;;;;;;28.73;30.96;96646.38;2060055;28;20313;-57
2023/06/15 11:43:31;;;;;;;4.43;3.00;;;;;;;28.01;31.74;96647.56;2060174;28;20503;-57
2023/06/15 11:44:32;;;;;;;4.45;2.50;;;;;;;29.06;30.76;96648.72;2058692;28;20286;-57
2023/06/15 11:45:34;;;;;;;3.22;2.55;;;;;;;28.69;31.76;96646.94;2059466;28;20237;-57
2023/06/15 11:46:36;;;;;;;5.28;2.25;;;;;;;29.19;31.83;96644.53;2058383;28;20321;-57
2023/06/15 11:47:40;;;;;;;5.15;2.83;;;;;;;28.75;31.43;96641.66;2064821;28;20226;-57
2023/06/15 11:48:43;;;;;;;10.10;6.40;;;;;;;29.28;31.91;96648.81;2063850;28;20205;-57
2023/06/15 11:49:47;;;;;;;23.58;19.95;;;;;;;29.05;31.32;96644.38;2064607;28;20459;-58
2023/06/15 11:50:49;;;;;;;9.33;4.10;;;;;;;28.94;31.55;96634.91;2067594;28;20541;-57
2023/06/15 11:51:53;;;;;;;4.53;2.50;;;;;;;29.05;31.22;96640.84;2065748;28;20941;-58
2023/06/15 11:52:54;;;;;;;5.20;3.50;;;;;;;29.36;32.02;96646.03;2060167;28;20252;-57
2023/06/15 11:53:56;;;;;;;5.57;3.10;;;;;;;29.41;32.06;96645.50;2059610;28;20426;-58
2023/06/15 11:55:08;;;;;;;5.10;2.67;;;;;;;30.00;31.19;96651.75;2058851;28;20428;-58
2023/06/15 11:56:14;;;;;;;3.90;2.90;;;;;;;30.20;31.35;96649.28;2057518;28;20490;-58
2023/06/15 11:57:16;;;;;;;3.40;2.77;;;;;;;30.69;30.55;96642.25;2061291;28;20858;-58
2023/06/15 11:58:21;;;;;;;4.63;3.03;;;;;;;30.05;30.04;96641.25;2066137;28;20435;-57
2023/06/15 11:59:25;;;;;;;5.03;2.60;;;;;;;28.98;31.14;96640.75;2066826;28;20466;-57
2023/06/15 12:00:27;;;;;;;3.73;2.50;;;;;;;28.75;31.67;96636.28;2067193;28;20438;-57
2023/06/15 12:01:29;;;;;;;7.20;2.57;;;;;;;29.01;31.53;96645.75;2067290;28;20438;-57
2023/06/15 12:02:34;;;;;;;3.83;2.27;;;;;;;29.34;31.32;96645.38;2057962;28;20465;-57
2023/06/15 12:03:39;;;;;;;7.43;2.97;;;;;;;29.62;31.43;96644.69;2056843;28;20436;-57
2023/06/15 12:05:02;;;;;;;4.53;2.60;;;;;;;29.41;31.85;96637.44;2057030;28;20927;-57
2023/06/15 12:06:04;;;;;;;6.63;3.00;;;;;;;27.11;32.63;96640.81;2059654;28;20949;-57
2023/06/15 12:07:06;;;;;;;6.23;2.90;;;;;;;27.11;33.38;96639.00;2063378;28;20454;-57
2023/06/15 12:08:08;;;;;;;5.13;2.60;;;;;;;27.34;33.24;96631.00;2066819;28;20432;-57
2023/06/15 12:09:09;;;;;;;4.10;2.80;;;;;;;27.48;33.21;96639.38;2066814;28;20431;-57
2023/06/15 12:10:11;;;;;;;5.03;2.73;;;;;;;27.78;32.57;96645.75;2066190;28;20436;-57
2023/06/15 12:11:13;;;;;;;6.73;2.57;;;;;;;27.91;31.78;96641.63;2068106;28;20438;-57
2023/06/15 12:12:31;;;;;;;6.30;2.47;;;;;;;28.64;31.78;96636.69;2060716;28;20963;-57
2023/06/15 12:13:37;;;;;;;6.57;2.40;;;;;;;29.30;30.88;96634.16;2061123;28;20431;-57
2023/06/15 12:14:42;;;;;;;3.37;2.30;;;;;;;28.11;30.84;96633.97;2058785;28;20515;-57
2023/06/15 12:15:47;;;;;;;5.20;2.40;;;;;;;27.89;31.89;96636.44;2061273;28;20511;-57
2023/06/15 12:16:52;;;;;;;8.23;2.37;;;;;;;28.22;32.16;96630.84;2062783;28;20432;-57
2023/06/15 12:17:56;;;;;;;3.78;2.45;;;;;;;28.07;30.85;96633.47;2067544;28;20462;-57
2023/06/15 12:18:58;;;;;;;4.00;2.70;;;;;;;28.35;31.33;96632.94;2067231;28;20817;-57
2023/06/15 12:20:09;;;;;;;7.43;2.60;;;;;;;28.74;32.07;96625.72;2067763;28;20221;-57
2023/06/15 12:21:17;;;;;;;2.90;2.20;;;;;;;28.21;32.11;96636.41;2070362;28;20198;-57
2023/06/15 12:22:20;;;;;;;6.40;3.28;;;;;;;28.23;32.48;96635.22;2063087;28;20874;-57
2023/06/15 12:23:37;;;;;;;5.60;2.55;;;;;;;28.50;32.86;96638.34;2058164;28;20198;-57
2023/06/15 12:24:40;;;;;;;6.65;3.50;;;;;;;27.86;33.02;96634.13;2058443;28;20248;-57
2023/06/15 12:25:45;;;;;;;11.02;2.67;;;;;;;27.43;33.91;96634.53;2058892;28;20235;-57
2023/06/15 12:26:52;;;;;;;6.68;2.85;;;;;;;27.66;34.01;96639.09;2061689;28;20257;-57
2023/06/15 12:27:55;;;;;;;8.13;2.87;;;;;;;28.00;33.46;96627.16;2069319;28;20288;-56
2023/06/15 12:28:56;;;;;;;4.18;2.45;;;;;;;27.98;33.21;96632.66;2067554;28;20828;-57
2023/06/15 12:30:11;;;;;;;8.55;3.03;;;;;;;28.05;33.52;96634.69;2066842;28;20222;-57
2023/06/15 12:31:12;;;;;;;5.47;2.78;;;;;;;27.56;33.44;96638.50;2067763;28;20949;-57
2023/06/15 12:32:24;;;;;;;4.07;2.85;;;;;;;27.41;33.97;96633.84;2061921;28;20606;-57
2023/06/15 12:33:42;;;;;;;4.97;2.70;;;;;;;27.49;34.28;96633.81;2055759;28;20204;-57
2023/06/15 12:34:44;;;;;;;5.57;3.15;;;;;;;28.15;32.88;96629.91;2058506;28;20290;-57
2023/06/15 12:35:50;;;;;;;4.75;3.08;;;;;;;28.31;32.98;96628.94;2059501;28;20272;-57
2023/06/15 12:36:52;;;;;;;5.00;2.63;;;;;;;29.11;32.61;96624.78;2061938;28;20641;-57
2023/06/15 12:37:56;;;;;;;3.45;2.70;;;;;;;28.98;31.06;96627.31;2066285;28;20449;-57
2023/06/15 12:39:03;;;;;;;5.90;2.30;;;;;;;29.61;30.63;96624.19;2066462;28;20225;-57
2023/06/15 12:40:05;;;;;;;4.20;2.63;;;;;;;29.55;31.28;96616.91;2066115;28;20201;-57
2023/06/15 12:41:13;;;;;;;4.03;2.90;;;;;;;29.73;31.58;96630.75;2065896;28;20687;-57
2023/06/15 12:42:19;;;;;;;5.83;2.40;;;;;;;29.83;30.86;96626.91;2063018;28;20313;-57
2023/06/15 12:43:21;;;;;;;7.57;3.20;;;;;;;30.04;30.61;96623.44;2060905;28;20424;-57
2023/06/15 12:44:23;;;;;;;3.33;2.60;;;;;;;29.93;30.26;96625.63;2059640;28;20428;-57
2023/06/15 12:45:25;;;;;;;5.23;3.07;;;;;;;29.74;30.63;96621.66;2060179;28;21038;-57
2023/06/15 12:46:27;;;;;;;3.53;2.40;;;;;;;30.27;29.87;96625.91;2058834;28;20577;-57
2023/06/15 12:47:28;;;;;;;4.63;3.33;;;;;;;30.15;29.00;96622.09;2063811;28;20456;-57
2023/06/15 12:48:31;;;;;;;4.83;2.10;;;;;;;30.37;29.26;96625.59;2064902;28;20436;-57
2023/06/15 12:49:32;;;;;;;3.83;2.57;;;;;;;30.90;29.33;96623.31;2061552;28;20640;-57
2023/06/15 12:50:34;;;;;;;11.40;2.37;;;;;;;30.81;29.40;96615.59;2065485;28;20436;-57
2023/06/15 12:51:36;;;;;;;3.27;2.63;;;;;;;29.61;30.10;96614.28;2066638;28;20446;-57
2023/06/15 12:52:37;;;;;;;5.10;2.47;;;;;;;30.03;29.61;96619.06;2059831;28;20477;-58
2023/06/15 12:53:39;;;;;;;7.60;2.60;;;;;;;30.33;29.73;96614.38;2059954;28;20428;-57
2023/06/15 12:54:41;;;;;;;7.60;2.70;;;;;;;30.31;29.27;96616.44;2058752;28;20466;-57
2023/06/15 12:55:42;;;;;;;4.97;2.67;;;;;;;29.58;30.57;96603.88;2056028;28;20524;-57
2023/06/15 12:56:44;;;;;;;4.83;1.93;;;;;;;29.67;30.53;96603.78;2058396;28;20768;-57
2023/06/15 12:57:46;;;;;;;4.30;3.13;;;;;;;29.57;30.42;96604.09;2068865;28;20760;-58
2023/06/15 12:58:47;;;;;;;4.67;2.63;;;;;;;30.40;30.69;96604.50;2065280;28;20808;-57
2023/06/15 12:59:49;;;;;;;3.87;2.90;;;;;;;30.45;30.72;96614.69;2066100;28;20461;-57
2023/06/15 13:00:50;;;;;;;5.77;2.50;;;;;;;29.75;31.18;96604.50;2068275;28;20740;-57
2023/06/15 13:01:53;;;;;;;3.20;2.27;;;;;;;29.38;31.24;96608.22;2064230;28;20428;-57
2023/06/15 13:02:57;;;;;;;8.43;2.47;;;;;;;29.40;31.27;96607.00;2058978;28;20612;-57
2023/06/15 13:03:59;;;;;;;3.90;2.07;;;;;;;29.44;30.86;96610.16;2059643;28;20440;-57
2023/06/15 13:05:03;;;;;;;4.40;2.73;;;;;;;29.67;30.61;96606.47;2058501;28;20857;-58
2023/06/15 13:06:06;;;;;;;3.97;2.57;;;;;;;29.64;30.50;96607.69;2055993;28;20575;-57
2023/06/15 13:07:07;;;;;;;5.03;2.80;;;;;;;29.31;30.73;96608.13;2062035;28;20477;-57
2023/06/15 13:08:09;;;;;;;3.47;2.70;;;;;;;28.97;31.55;96612.19;2067497;28;20477;-57
2023/06/15 13:09:11;;;;;;;6.83;2.67;;;;;;;28.41;32.59;96610.72;2065371;28;20439;-57
2023/06/15 13:10:13;;;;;;;4.17;2.57;;;;;;;28.07;32.22;96613.88;2065215;28;20431;-57
2023/06/15 13:11:15;;;;;;;7.37;3.20;;;;;;;27.98;32.64;96602.34;2065041;28;20428;-57
2023/06/15 13:12:17;;;;;;;5.70;2.70;;;;;;;27.30;33.06;96604.72;2063865;28;20502;-57
2023/06/15 13:13:18;;;;;;;5.57;2.63;;;;;;;27.94;32.47;96606.41;2059050;28;20432;-57
2023/06/15 13:14:20;;;;;;;10.60;2.63;;;;;;;28.65;31.48;96609.66;2059279;28;20432;-57
2023/06/15 13:15:22;;;;;;;36.20;3.53;;;;;;;28.45;31.51;96609.34;2058573;28;20544;-57
2023/06/15 13:16:24;;;;;;;4.50;2.30;;;;;;;29.01;31.59;96602.75;2059620;28;20490;-57
2023/06/15 13:17:25;;;;;;;4.50;2.40;;;;;;;29.62;30.51;96596.28;2065470;28;20516;-57
2023/06/15 13:18:27;;;;;;;10.03;3.30;;;;;;;29.24;30.49;96601.81;2067644;28;20440;-57
2023/06/15 13:19:28;;;;;;;9.53;2.90;;;;;;;28.10;32.17;96603.63;2067095;28;20435;-57
2023/06/15 13:20:30;;;;;;;6.97;2.90;;;;;;;27.40;33.28;96599.19;2064611;28;20476;-57
2023/06/15 13:21:31;;;;;;;8.40;3.17;;;;;;;27.81;33.04;96605.13;2065572;28;20489;-57
2023/06/15 13:22:34;;;;;;;4.07;2.30;;;;;;;27.84;32.75;96607.44;2061123;28;20472;-57
2023/06/15 13:23:35;;;;;;;4.13;2.57;;;;;;;27.57;33.55;96606.13;2058608;28;20837;-57
2023/06/15 13:24:37;;;;;;;10.20;2.53;;;;;;;27.32;33.53;96598.19;2058373;28;20997;-57
2023/06/15 13:25:39;;;;;;;4.67;2.53;;;;;;;27.15;33.91;96608.16;2057865;28;20516;-57
2023/06/15 13:26:40;;;;;;;4.70;2.77;;;;;;;27.05;33.87;96607.53;2059655;28;20787;-57
2023/06/15 13:27:42;;;;;;;6.43;2.63;;;;;;;26.89;33.90;96603.03;2060200;28;20842;-57
2023/06/15 13:28:43;;;;;;;4.78;2.42;;;;;;;27.18;33.23;96602.44;2060323;28;20488;-57
2023/06/15 13:29:45;;;;;;;6.23;3.10;;;;;;;27.41;32.89;96598.19;2057977;28;20195;-57
2023/06/15 13:30:47;;;;;;;5.78;2.53;;;;;;;27.94;32.50;96609.09;2058932;28;20798;-57
2023/06/15 13:31:48;;;;;;;5.00;2.58;;;;;;;28.58;32.23;96603.38;2059335;28;20333;-57
2023/06/15 13:32:49;;;;;;;3.88;2.42;;;;;;;28.72;31.51;96606.25;2064719;28;20594;-57
2023/06/15 13:33:51;;;;;;;4.72;2.70;;;;;;;29.37;31.07;96606.53;2065102;28;20202;-57
2023/06/15 13:34:53;;;;;;;4.07;2.30;;;;;;;29.56;30.50;96603.25;2065776;28;20850;-57
2023/06/15 13:35:57;;;;;;;4.50;2.70;;;;;;;29.74;29.91;96600.13;2066131;28;21076;-57
2023/06/15 13:36:58;;;;;;;4.10;2.40;;;;;;;29.64;29.32;96608.50;2063416;28;21015;-57
2023/06/15 13:38:00;;;;;;;6.13;2.40;;;;;;;29.30;30.18;96601.91;2057411;28;20424;-57
2023/06/15 13:39:02;;;;;;;4.77;2.90;;;;;;;29.24;29.71;96601.81;2059739;28;20429;-57
2023/06/15 13:40:06;;;;;;;4.50;2.37;;;;;;;30.12;29.68;96610.69;2057129;28;20463;-57
2023/06/15 13:41:08;;;;;;;6.27;3.00;;;;;;;30.21;29.29;96607.88;2058295;28;20425;-57
2023/06/15 13:42:11;;;;;;;4.70;2.43;;;;;;;29.76;29.61;96606.19;2066191;28;20471;-57
2023/06/15 13:43:13;;;;;;;4.13;2.60;;;;;;;29.60;29.86;96595.66;2068303;28;20463;-57
2023/06/15 13:44:15;;;;;;;2.97;2.37;;;;;;;29.74;29.30;96597.44;2068762;28;20512;-57
2023/06/15 13:45:18;;;;;;;4.40;2.87;;;;;;;29.64;28.96;96596.94;2068194;28;20786;-57
2023/06/15 13:46:21;;;;;;;3.43;2.20;;;;;;;29.70;29.47;96596.19;2066054;28;20435;-57
2023/06/15 13:47:22;;;;;;;2.83;2.13;;;;;;;29.94;29.26;96594.13;2060258;28;20525;-57
2023/06/15 13:48:24;;;;;;;4.27;2.43;;;;;;;30.27;29.00;96599.84;2057751;28;20826;-57
2023/06/15 13:49:26;;;;;;;6.00;2.50;;;;;;;29.78;28.61;96605.97;2056563;28;20455;-57
2023/06/15 13:50:28;;;;;;;2.70;2.23;;;;;;;30.12;27.87;96604.47;2060639;28;20431;-57
2023/06/15 13:51:30;;;;;;;3.17;2.07;;;;;;;29.65;28.20;96598.59;2060437;28;20510;-57
2023/06/15 13:52:33;;;;;;;5.33;2.30;;;;;;;29.13;29.48;96587.81;2065884;28;20452;-57
2023/06/15 13:53:34;;;;;;;5.00;2.87;;;;;;;29.00;29.87;96588.50;2068270;28;20455;-58
2023/06/15 13:54:36;;;;;;;6.03;2.67;;;;;;;28.89;29.85;96594.31;2066856;28;20515;-57
2023/06/15 13:55:38;;;;;;;4.37;2.27;;;;;;;29.80;29.38;96599.38;2066328;28;20482;-57
2023/06/15 13:56:40;;;;;;;2.87;2.17;;;;;;;30.40;28.74;96585.66;2066383;28;20463;-57
2023/06/15 13:57:41;;;;;;;8.57;2.40;;;;;;;30.84;28.46;96591.75;2066834;28;21124;-59
2023/06/15 13:58:43;;;;;;;6.73;1.87;;;;;;;30.76;28.21;96590.06;2064443;28;20467;-58
2023/06/15 13:59:45;;;;;;;3.97;1.97;;;;;;;31.21;28.46;96597.81;2068529;28;20439;-57
2023/06/15 14:00:46;;;;;;;10.67;2.80;;;;;;;31.56;28.10;96603.13;2067140;28;20489;-57
2023/06/15 14:01:48;;;;;;;3.23;2.30;;;;;;;31.06;28.92;96597.94;2064999;28;20536;-57
2023/06/15 14:02:50;;;;;;;4.40;2.20;;;;;;;31.52;28.28;96598.34;2066070;28;20455;-57
2023/06/15 14:03:52;;;;;;;3.20;1.83;;;;;;;31.47;27.98;96604.34;2067181;28;20458;-57
2023/06/15 14:04:55;;;;;;;6.33;2.50;;;;;;;31.47;28.55;96598.13;2064157;28;20432;-57
2023/06/15 14:05:56;;;;;;;6.83;3.03;;;;;;;31.22;28.17;96594.09;2065165;28;20442;-57
2023/06/15 14:06:58;;;;;;;5.20;3.60;;;;;;;31.05;28.35;96588.16;2063437;28;20428;-57
2023/06/15 14:08:00;;;;;;;5.50;3.67;;;;;;;30.86;28.95;96589.72;2058383;28;20433;-58
2023/06/15 14:09:01;;;;;;;14.33;11.30;;;;;;;31.20;28.41;96588.06;2059610;28;20649;-58
2023/06/15 14:10:04;;;;;;;3.60;2.27;;;;;;;30.12;29.27;96585.63;2060951;28;20429;-57
2023/06/15 14:11:05;;;;;;;3.10;2.03;;;;;;;30.54;29.18;96583.91;2058811;28;20428;-57